Hoven, SD (57450)

11:01 AM CST on February 14, 2016 (GMT -0600)
Hoven | | Change Station
CLOSE
Current Station
Personal Weather Station
Location: Hoven, SD
Elevation: 1877 ft
Nearby Weather Stations

Elev 1877 ft 45.24 °N, 99.78 °W | Updated 9 seconds ago

Overcast
Overcast
32.7 °F
Feels Like 29 °F
N
4.0
Wind Variable Wind from NW
Gusts 4.5 mph

Today
High -- | Low -- °F
--% Chance of Precip.
Yesterday
High -- | Low -- °F
Precip. -- in
Pressure 29.80 in
Visibility 7.0 miles
Clouds Overcast 2300 ft
Windchill 29 °F
Dew Point 32 °F
Humidity 98%
Rainfall 0.00 in
Snow Depth Not available.
7:42 AM 6:04 PM
Waxing Crescent, 43% visible
METAR KMBG 141652Z AUTO 00000KT 7SM OVC023 M01/M02 A2973 RMK AO2 SLP089 T10111022
Pressure 29.80 in
Visibility 7.0 miles
Clouds Overcast 2300 ft
Windchill 29 °F
Dew Point 32 °F
Humidity 98%
Rainfall 0.00 in
Snow Depth Not available.
7:42 AM 6:04 PM
Waxing Crescent, 43% visible
METAR KMBG 141652Z AUTO 00000KT 7SM OVC023 M01/M02 A2973 RMK AO2 SLP089 T10111022

10-Day Weather Forecast

Almanac

Astronomy

Feb. 14, 2016 Rise Set
Actual Time
Civil Twilight
Nautical Twilight
Astronomical Twilight
Moon
Length of Visible Light
Length of Day
Tomorrow will be .
, % of the Moon is Illuminated

Today's Extremes

State Highs State Lows

Community

WunderPhotos

Upload Photos

1,892,849 photos uploaded!

WunderBlog® & News

Nearby

Air Quality

  Air Quality AQ Index Pollutant
Not available.

Snow Depth

Station Depth Elevation

Earthquake Activity

City Distance Mag. Time & Date
Minimum magnitude displayed is 2.5.

Coastal Water Temperatures

Place Temperature

Stations

Nearby Weather Stations

Station Location Temp. Windchill Dew Point Humidity Wind Precip. Elev Updated Type
                   

Watches & Warnings

There are currently no watches in effect.